sensor_id;sensor_type;location;lat;lon;timestamp;P1;durP1;ratioP1;P2;durP2;ratioP2
9420;SDS011;4749;51.398;5.466;2022-08-21T00:01:50;9.55;;;4.47;;
9420;SDS011;4749;51.398;5.466;2022-08-21T00:04:17;5.90;;;4.00;;
9420;SDS011;4749;51.398;5.466;2022-08-21T00:06:48;6.45;;;4.10;;
9420;SDS011;4749;51.398;5.466;2022-08-21T00:09:18;5.45;;;4.00;;
9420;SDS011;4749;51.398;5.466;2022-08-21T00:11:46;7.50;;;4.28;;
9420;SDS011;4749;51.398;5.466;2022-08-21T00:14:14;5.97;;;4.10;;
9420;SDS011;4749;51.398;5.466;2022-08-21T00:16:42;5.28;;;4.22;;
9420;SDS011;4749;51.398;5.466;2022-08-21T00:19:10;6.90;;;4.72;;
9420;SDS011;4749;51.398;5.466;2022-08-21T00:21:37;7.40;;;4.57;;
9420;SDS011;4749;51.398;5.466;2022-08-21T00:24:04;9.70;;;4.65;;
9420;SDS011;4749;51.398;5.466;2022-08-21T00:26:33;6.90;;;4.57;;
9420;SDS011;4749;51.398;5.466;2022-08-21T00:29:02;7.47;;;4.35;;
9420;SDS011;4749;51.398;5.466;2022-08-21T00:31:30;6.38;;;4.15;;
9420;SDS011;4749;51.398;5.466;2022-08-21T00:33:57;7.72;;;4.38;;
9420;SDS011;4749;51.398;5.466;2022-08-21T00:36:26;6.75;;;4.53;;
9420;SDS011;4749;51.398;5.466;2022-08-21T00:38:54;5.47;;;4.60;;
9420;SDS011;4749;51.398;5.466;2022-08-21T00:41:22;8.52;;;4.43;;
9420;SDS011;4749;51.398;5.466;2022-08-21T00:44:04;5.18;;;4.50;;
9420;SDS011;4749;51.398;5.466;2022-08-21T00:46:35;5.72;;;4.57;;
9420;SDS011;4749;51.398;5.466;2022-08-21T00:49:03;6.28;;;4.35;;
9420;SDS011;4749;51.398;5.466;2022-08-21T00:51:37;6.75;;;4.65;;
9420;SDS011;4749;51.398;5.466;2022-08-21T00:54:19;6.68;;;4.82;;
9420;SDS011;4749;51.398;5.466;2022-08-21T00:56:56;8.40;;;4.40;;
9420;SDS011;4749;51.398;5.466;2022-08-21T00:59:29;6.07;;;4.30;;
9420;SDS011;4749;51.398;5.466;2022-08-21T01:02:04;5.03;;;3.80;;
9420;SDS011;4749;51.398;5.466;2022-08-21T01:04:34;6.15;;;4.70;;
9420;SDS011;4749;51.398;5.466;2022-08-21T01:07:02;5.38;;;4.38;;
9420;SDS011;4749;51.398;5.466;2022-08-21T01:09:29;8.73;;;5.35;;
9420;SDS011;4749;51.398;5.466;2022-08-21T01:11:56;6.85;;;5.10;;
9420;SDS011;4749;51.398;5.466;2022-08-21T01:14:24;6.25;;;5.22;;
9420;SDS011;4749;51.398;5.466;2022-08-21T01:16:52;6.57;;;5.53;;
9420;SDS011;4749;51.398;5.466;2022-08-21T01:19:22;6.32;;;5.63;;
9420;SDS011;4749;51.398;5.466;2022-08-21T01:21:50;10.10;;;5.55;;
9420;SDS011;4749;51.398;5.466;2022-08-21T01:24:18;7.20;;;5.68;;
9420;SDS011;4749;51.398;5.466;2022-08-21T01:26:45;8.45;;;5.28;;
9420;SDS011;4749;51.398;5.466;2022-08-21T01:29:15;7.70;;;5.13;;
9420;SDS011;4749;51.398;5.466;2022-08-21T01:32:04;7.88;;;5.60;;
9420;SDS011;4749;51.398;5.466;2022-08-21T01:34:38;8.18;;;5.63;;
9420;SDS011;4749;51.398;5.466;2022-08-21T01:37:08;8.77;;;5.85;;
9420;SDS011;4749;51.398;5.466;2022-08-21T01:39:35;8.07;;;6.68;;
9420;SDS011;4749;51.398;5.466;2022-08-21T01:42:03;8.05;;;6.20;;
9420;SDS011;4749;51.398;5.466;2022-08-21T01:44:33;7.20;;;5.97;;
9420;SDS011;4749;51.398;5.466;2022-08-21T01:47:02;7.65;;;6.10;;
9420;SDS011;4749;51.398;5.466;2022-08-21T01:49:34;10.13;;;6.25;;
9420;SDS011;4749;51.398;5.466;2022-08-21T01:52:04;6.78;;;5.95;;
9420;SDS011;4749;51.398;5.466;2022-08-21T01:54:34;7.20;;;6.30;;
9420;SDS011;4749;51.398;5.466;2022-08-21T01:57:02;8.45;;;6.30;;
9420;SDS011;4749;51.398;5.466;2022-08-21T01:59:30;7.32;;;6.00;;
9420;SDS011;4749;51.398;5.466;2022-08-21T02:01:57;6.90;;;6.20;;
9420;SDS011;4749;51.398;5.466;2022-08-21T02:04:24;8.35;;;6.38;;
9420;SDS011;4749;51.398;5.466;2022-08-21T02:06:51;6.75;;;6.15;;
9420;SDS011;4749;51.398;5.466;2022-08-21T02:09:19;8.02;;;6.05;;
9420;SDS011;4749;51.398;5.466;2022-08-21T02:11:49;7.00;;;5.70;;
9420;SDS011;4749;51.398;5.466;2022-08-21T02:14:17;8.68;;;6.20;;
9420;SDS011;4749;51.398;5.466;2022-08-21T02:16:57;7.93;;;6.40;;
9420;SDS011;4749;51.398;5.466;2022-08-21T02:19:30;8.75;;;6.40;;
9420;SDS011;4749;51.398;5.466;2022-08-21T02:22:06;7.85;;;6.32;;
9420;SDS011;4749;51.398;5.466;2022-08-21T02:24:36;9.10;;;6.95;;
9420;SDS011;4749;51.398;5.466;2022-08-21T02:27:21;7.95;;;6.78;;
9420;SDS011;4749;51.398;5.466;2022-08-21T02:29:52;9.07;;;7.10;;
9420;SDS011;4749;51.398;5.466;2022-08-21T02:32:22;9.40;;;7.28;;
9420;SDS011;4749;51.398;5.466;2022-08-21T02:34:49;8.10;;;7.15;;
9420;SDS011;4749;51.398;5.466;2022-08-21T02:37:16;8.77;;;7.53;;
9420;SDS011;4749;51.398;5.466;2022-08-21T02:39:43;9.93;;;7.95;;
9420;SDS011;4749;51.398;5.466;2022-08-21T02:42:10;9.18;;;8.15;;
9420;SDS011;4749;51.398;5.466;2022-08-21T02:44:37;9.07;;;8.18;;
9420;SDS011;4749;51.398;5.466;2022-08-21T02:47:04;12.05;;;8.45;;
9420;SDS011;4749;51.398;5.466;2022-08-21T02:49:31;9.25;;;8.07;;
9420;SDS011;4749;51.398;5.466;2022-08-21T02:51:58;12.68;;;8.65;;
9420;SDS011;4749;51.398;5.466;2022-08-21T02:54:26;9.63;;;8.35;;
9420;SDS011;4749;51.398;5.466;2022-08-21T02:56:53;11.50;;;8.30;;
9420;SDS011;4749;51.398;5.466;2022-08-21T02:59:20;12.07;;;7.93;;
9420;SDS011;4749;51.398;5.466;2022-08-21T03:01:47;8.95;;;8.07;;
9420;SDS011;4749;51.398;5.466;2022-08-21T03:04:14;8.55;;;7.65;;
9420;SDS011;4749;51.398;5.466;2022-08-21T03:06:41;9.23;;;7.90;;
9420;SDS011;4749;51.398;5.466;2022-08-21T03:09:09;9.77;;;7.65;;
9420;SDS011;4749;51.398;5.466;2022-08-21T03:11:36;12.25;;;7.90;;
9420;SDS011;4749;51.398;5.466;2022-08-21T03:14:03;10.45;;;8.38;;
9420;SDS011;4749;51.398;5.466;2022-08-21T03:16:31;10.55;;;8.00;;
9420;SDS011;4749;51.398;5.466;2022-08-21T03:19:00;8.43;;;7.47;;
9420;SDS011;4749;51.398;5.466;2022-08-21T03:21:28;11.60;;;9.27;;
9420;SDS011;4749;51.398;5.466;2022-08-21T03:23:56;10.18;;;7.47;;
9420;SDS011;4749;51.398;5.466;2022-08-21T03:26:23;9.48;;;7.65;;
9420;SDS011;4749;51.398;5.466;2022-08-21T03:28:53;12.55;;;7.90;;
9420;SDS011;4749;51.398;5.466;2022-08-21T03:31:24;10.15;;;7.95;;
9420;SDS011;4749;51.398;5.466;2022-08-21T03:33:54;11.63;;;8.20;;
9420;SDS011;4749;51.398;5.466;2022-08-21T03:36:22;8.25;;;7.40;;
9420;SDS011;4749;51.398;5.466;2022-08-21T03:38:50;9.10;;;7.55;;
9420;SDS011;4749;51.398;5.466;2022-08-21T03:41:17;11.75;;;7.65;;
9420;SDS011;4749;51.398;5.466;2022-08-21T03:43:44;10.48;;;7.43;;
9420;SDS011;4749;51.398;5.466;2022-08-21T03:46:11;8.15;;;6.70;;
9420;SDS011;4749;51.398;5.466;2022-08-21T03:48:39;12.43;;;7.85;;
9420;SDS011;4749;51.398;5.466;2022-08-21T03:51:06;8.82;;;7.55;;
9420;SDS011;4749;51.398;5.466;2022-08-21T03:53:34;9.25;;;6.68;;
9420;SDS011;4749;51.398;5.466;2022-08-21T03:56:01;9.45;;;7.20;;
9420;SDS011;4749;51.398;5.466;2022-08-21T03:58:29;13.57;;;7.30;;
9420;SDS011;4749;51.398;5.466;2022-08-21T04:00:58;11.35;;;7.18;;
9420;SDS011;4749;51.398;5.466;2022-08-21T04:03:27;11.65;;;7.38;;
9420;SDS011;4749;51.398;5.466;2022-08-21T04:05:54;9.85;;;7.13;;
9420;SDS011;4749;51.398;5.466;2022-08-21T04:08:21;9.77;;;6.90;;
9420;SDS011;4749;51.398;5.466;2022-08-21T04:10:49;9.68;;;7.43;;
9420;SDS011;4749;51.398;5.466;2022-08-21T04:13:20;12.75;;;6.85;;
9420;SDS011;4749;51.398;5.466;2022-08-21T04:15:47;12.38;;;6.75;;
9420;SDS011;4749;51.398;5.466;2022-08-21T04:18:15;13.73;;;7.72;;
9420;SDS011;4749;51.398;5.466;2022-08-21T04:20:43;10.55;;;6.72;;
9420;SDS011;4749;51.398;5.466;2022-08-21T04:23:15;12.23;;;6.75;;
9420;SDS011;4749;51.398;5.466;2022-08-21T04:25:50;9.52;;;6.63;;
9420;SDS011;4749;51.398;5.466;2022-08-21T04:28:19;8.82;;;6.43;;
9420;SDS011;4749;51.398;5.466;2022-08-21T04:30:48;7.15;;;6.25;;
9420;SDS011;4749;51.398;5.466;2022-08-21T04:33:19;10.73;;;6.78;;
9420;SDS011;4749;51.398;5.466;2022-08-21T04:35:47;8.40;;;6.75;;
9420;SDS011;4749;51.398;5.466;2022-08-21T04:38:15;9.55;;;6.95;;
9420;SDS011;4749;51.398;5.466;2022-08-21T04:40:43;9.57;;;6.38;;
9420;SDS011;4749;51.398;5.466;2022-08-21T04:43:10;9.48;;;7.25;;
9420;SDS011;4749;51.398;5.466;2022-08-21T04:45:43;11.30;;;7.20;;
9420;SDS011;4749;51.398;5.466;2022-08-21T04:48:14;11.95;;;7.15;;
9420;SDS011;4749;51.398;5.466;2022-08-21T04:53:20;10.23;;;7.13;;
9420;SDS011;4749;51.398;5.466;2022-08-21T04:56:04;11.55;;;7.53;;
9420;SDS011;4749;51.398;5.466;2022-08-21T04:58:39;12.02;;;6.97;;
9420;SDS011;4749;51.398;5.466;2022-08-21T05:01:09;11.25;;;6.63;;
9420;SDS011;4749;51.398;5.466;2022-08-21T05:03:43;10.25;;;6.38;;
9420;SDS011;4749;51.398;5.466;2022-08-21T05:06:14;9.65;;;6.22;;
9420;SDS011;4749;51.398;5.466;2022-08-21T05:08:43;10.23;;;6.13;;
9420;SDS011;4749;51.398;5.466;2022-08-21T05:11:13;13.27;;;6.72;;
9420;SDS011;4749;51.398;5.466;2022-08-21T05:13:41;10.15;;;6.70;;
9420;SDS011;4749;51.398;5.466;2022-08-21T05:16:08;12.10;;;5.97;;
9420;SDS011;4749;51.398;5.466;2022-08-21T05:18:35;11.20;;;6.82;;
9420;SDS011;4749;51.398;5.466;2022-08-21T05:21:03;10.15;;;6.03;;
9420;SDS011;4749;51.398;5.466;2022-08-21T05:23:31;10.70;;;6.40;;
9420;SDS011;4749;51.398;5.466;2022-08-21T05:25:58;8.02;;;5.72;;
9420;SDS011;4749;51.398;5.466;2022-08-21T05:28:27;13.15;;;6.50;;
9420;SDS011;4749;51.398;5.466;2022-08-21T05:30:55;7.43;;;5.28;;
9420;SDS011;4749;51.398;5.466;2022-08-21T05:33:22;8.27;;;5.75;;
9420;SDS011;4749;51.398;5.466;2022-08-21T05:35:51;12.38;;;6.38;;
9420;SDS011;4749;51.398;5.466;2022-08-21T05:38:22;11.07;;;5.72;;
9420;SDS011;4749;51.398;5.466;2022-08-21T05:40:54;9.60;;;5.20;;
9420;SDS011;4749;51.398;5.466;2022-08-21T05:43:21;10.23;;;5.90;;
9420;SDS011;4749;51.398;5.466;2022-08-21T05:45:48;14.15;;;6.03;;
9420;SDS011;4749;51.398;5.466;2022-08-21T05:48:18;6.07;;;4.82;;
9420;SDS011;4749;51.398;5.466;2022-08-21T05:50:49;9.20;;;5.03;;
9420;SDS011;4749;51.398;5.466;2022-08-21T05:53:18;9.57;;;5.15;;
9420;SDS011;4749;51.398;5.466;2022-08-21T05:55:48;10.00;;;5.10;;
9420;SDS011;4749;51.398;5.466;2022-08-21T05:58:19;11.23;;;5.00;;
9420;SDS011;4749;51.398;5.466;2022-08-21T06:00:48;8.10;;;5.15;;
9420;SDS011;4749;51.398;5.466;2022-08-21T06:03:23;10.52;;;4.82;;
9420;SDS011;4749;51.398;5.466;2022-08-21T06:05:53;11.98;;;4.78;;
9420;SDS011;4749;51.398;5.466;2022-08-21T06:08:22;8.43;;;4.20;;
9420;SDS011;4749;51.398;5.466;2022-08-21T06:10:51;9.27;;;4.85;;
9420;SDS011;4749;51.398;5.466;2022-08-21T06:13:21;9.77;;;4.35;;
9420;SDS011;4749;51.398;5.466;2022-08-21T06:15:48;6.13;;;4.05;;
9420;SDS011;4749;51.398;5.466;2022-08-21T06:18:26;7.55;;;3.95;;
9420;SDS011;4749;51.398;5.466;2022-08-21T06:20:53;8.40;;;3.83;;
9420;SDS011;4749;51.398;5.466;2022-08-21T06:23:23;10.38;;;4.47;;
9420;SDS011;4749;51.398;5.466;2022-08-21T06:25:59;9.15;;;3.92;;
9420;SDS011;4749;51.398;5.466;2022-08-21T06:28:28;9.85;;;4.25;;
9420;SDS011;4749;51.398;5.466;2022-08-21T06:30:55;8.85;;;3.40;;
9420;SDS011;4749;51.398;5.466;2022-08-21T06:33:22;6.97;;;3.85;;
9420;SDS011;4749;51.398;5.466;2022-08-21T06:35:54;11.10;;;3.67;;
9420;SDS011;4749;51.398;5.466;2022-08-21T06:38:21;10.20;;;3.30;;
9420;SDS011;4749;51.398;5.466;2022-08-21T06:40:48;10.52;;;3.35;;
9420;SDS011;4749;51.398;5.466;2022-08-21T06:43:17;8.50;;;3.42;;
9420;SDS011;4749;51.398;5.466;2022-08-21T06:45:45;8.82;;;3.85;;
9420;SDS011;4749;51.398;5.466;2022-08-21T06:48:12;8.55;;;3.90;;
9420;SDS011;4749;51.398;5.466;2022-08-21T06:50:44;7.38;;;3.40;;
9420;SDS011;4749;51.398;5.466;2022-08-21T06:53:13;10.18;;;2.72;;
9420;SDS011;4749;51.398;5.466;2022-08-21T06:55:43;7.32;;;3.00;;
9420;SDS011;4749;51.398;5.466;2022-08-21T06:58:11;10.50;;;3.15;;
9420;SDS011;4749;51.398;5.466;2022-08-21T07:00:40;8.63;;;2.95;;
9420;SDS011;4749;51.398;5.466;2022-08-21T07:03:21;9.35;;;2.90;;
9420;SDS011;4749;51.398;5.466;2022-08-21T07:05:58;8.10;;;2.55;;
9420;SDS011;4749;51.398;5.466;2022-08-21T07:08:26;6.55;;;2.42;;
9420;SDS011;4749;51.398;5.466;2022-08-21T07:10:55;7.93;;;3.15;;
9420;SDS011;4749;51.398;5.466;2022-08-21T07:13:25;12.25;;;2.67;;
9420;SDS011;4749;51.398;5.466;2022-08-21T07:15:53;8.70;;;2.50;;
9420;SDS011;4749;51.398;5.466;2022-08-21T07:18:24;9.50;;;2.63;;
9420;SDS011;4749;51.398;5.466;2022-08-21T07:20:51;6.13;;;2.70;;
9420;SDS011;4749;51.398;5.466;2022-08-21T07:23:21;7.65;;;2.40;;
9420;SDS011;4749;51.398;5.466;2022-08-21T07:25:56;10.27;;;2.67;;
9420;SDS011;4749;51.398;5.466;2022-08-21T07:28:25;7.95;;;2.63;;
9420;SDS011;4749;51.398;5.466;2022-08-21T07:30:55;7.72;;;2.53;;
9420;SDS011;4749;51.398;5.466;2022-08-21T07:33:25;7.82;;;3.05;;
9420;SDS011;4749;51.398;5.466;2022-08-21T07:35:54;6.50;;;2.10;;
9420;SDS011;4749;51.398;5.466;2022-08-21T07:38:22;11.27;;;2.72;;
9420;SDS011;4749;51.398;5.466;2022-08-21T07:40:52;12.05;;;3.15;;
9420;SDS011;4749;51.398;5.466;2022-08-21T07:43:22;7.05;;;2.70;;
9420;SDS011;4749;51.398;5.466;2022-08-21T07:45:49;6.97;;;2.30;;
9420;SDS011;4749;51.398;5.466;2022-08-21T07:48:17;11.73;;;2.90;;
9420;SDS011;4749;51.398;5.466;2022-08-21T07:50:44;5.35;;;2.30;;
9420;SDS011;4749;51.398;5.466;2022-08-21T07:53:11;8.02;;;2.50;;
9420;SDS011;4749;51.398;5.466;2022-08-21T07:55:38;8.05;;;2.58;;
9420;SDS011;4749;51.398;5.466;2022-08-21T07:58:06;9.32;;;2.55;;
9420;SDS011;4749;51.398;5.466;2022-08-21T08:00:33;11.93;;;2.53;;
9420;SDS011;4749;51.398;5.466;2022-08-21T08:03:01;9.48;;;2.60;;
9420;SDS011;4749;51.398;5.466;2022-08-21T08:05:29;10.05;;;3.17;;
9420;SDS011;4749;51.398;5.466;2022-08-21T08:07:58;7.43;;;2.58;;
9420;SDS011;4749;51.398;5.466;2022-08-21T08:10:25;9.68;;;2.75;;
9420;SDS011;4749;51.398;5.466;2022-08-21T08:12:53;10.82;;;2.92;;
9420;SDS011;4749;51.398;5.466;2022-08-21T08:15:23;8.13;;;1.80;;
9420;SDS011;4749;51.398;5.466;2022-08-21T08:17:52;4.97;;;1.92;;
9420;SDS011;4749;51.398;5.466;2022-08-21T08:20:21;12.50;;;2.60;;
9420;SDS011;4749;51.398;5.466;2022-08-21T08:22:51;9.80;;;2.60;;
9420;SDS011;4749;51.398;5.466;2022-08-21T08:25:21;5.90;;;2.13;;
9420;SDS011;4749;51.398;5.466;2022-08-21T08:27:49;7.43;;;1.83;;
9420;SDS011;4749;51.398;5.466;2022-08-21T08:30:17;7.40;;;2.20;;
9420;SDS011;4749;51.398;5.466;2022-08-21T08:32:46;8.05;;;2.25;;
9420;SDS011;4749;51.398;5.466;2022-08-21T08:35:14;7.40;;;2.50;;
9420;SDS011;4749;51.398;5.466;2022-08-21T08:37:42;5.78;;;1.75;;
9420;SDS011;4749;51.398;5.466;2022-08-21T08:43:17;6.85;;;1.60;;
9420;SDS011;4749;51.398;5.466;2022-08-21T08:45:48;8.85;;;2.53;;
9420;SDS011;4749;51.398;5.466;2022-08-21T08:48:36;6.00;;;1.67;;
9420;SDS011;4749;51.398;5.466;2022-08-21T08:54:26;7.50;;;1.98;;
9420;SDS011;4749;51.398;5.466;2022-08-21T08:57:07;10.48;;;2.08;;
9420;SDS011;4749;51.398;5.466;2022-08-21T08:59:43;9.02;;;2.03;;
9420;SDS011;4749;51.398;5.466;2022-08-21T09:02:14;6.57;;;2.15;;
9420;SDS011;4749;51.398;5.466;2022-08-21T09:04:44;9.18;;;1.95;;
9420;SDS011;4749;51.398;5.466;2022-08-21T09:07:25;6.53;;;1.60;;
9420;SDS011;4749;51.398;5.466;2022-08-21T09:16:20;7.80;;;2.00;;
9420;SDS011;4749;51.398;5.466;2022-08-21T09:24:47;7.05;;;1.58;;
9420;SDS011;4749;51.398;5.466;2022-08-21T09:27:49;6.30;;;1.85;;
9420;SDS011;4749;51.398;5.466;2022-08-21T09:30:17;10.15;;;1.52;;
9420;SDS011;4749;51.398;5.466;2022-08-21T09:32:49;7.97;;;1.95;;
9420;SDS011;4749;51.398;5.466;2022-08-21T09:35:18;6.30;;;1.77;;
9420;SDS011;4749;51.398;5.466;2022-08-21T09:40:41;6.15;;;1.70;;
9420;SDS011;4749;51.398;5.466;2022-08-21T09:43:17;5.45;;;1.80;;
9420;SDS011;4749;51.398;5.466;2022-08-21T09:45:49;9.52;;;1.90;;
9420;SDS011;4749;51.398;5.466;2022-08-21T09:48:41;4.78;;;1.15;;
9420;SDS011;4749;51.398;5.466;2022-08-21T09:51:20;4.05;;;1.52;;
9420;SDS011;4749;51.398;5.466;2022-08-21T09:53:58;3.78;;;1.27;;
9420;SDS011;4749;51.398;5.466;2022-08-21T09:56:37;5.93;;;1.20;;
9420;SDS011;4749;51.398;5.466;2022-08-21T09:59:55;6.90;;;1.38;;
9420;SDS011;4749;51.398;5.466;2022-08-21T10:03:12;6.72;;;1.55;;
9420;SDS011;4749;51.398;5.466;2022-08-21T10:05:59;5.32;;;1.50;;
9420;SDS011;4749;51.398;5.466;2022-08-21T10:08:35;3.80;;;1.20;;
9420;SDS011;4749;51.398;5.466;2022-08-21T10:11:07;3.92;;;1.08;;
9420;SDS011;4749;51.398;5.466;2022-08-21T10:13:58;6.22;;;1.70;;
9420;SDS011;4749;51.398;5.466;2022-08-21T10:20:25;4.20;;;1.35;;
9420;SDS011;4749;51.398;5.466;2022-08-21T10:23:37;5.32;;;1.30;;
9420;SDS011;4749;51.398;5.466;2022-08-21T10:32:13;5.68;;;1.30;;
9420;SDS011;4749;51.398;5.466;2022-08-21T10:35:24;5.85;;;1.38;;
9420;SDS011;4749;51.398;5.466;2022-08-21T10:47:30;4.80;;;1.48;;
9420;SDS011;4749;51.398;5.466;2022-08-21T10:50:30;3.40;;;1.15;;
9420;SDS011;4749;51.398;5.466;2022-08-21T10:53:33;4.65;;;1.20;;
9420;SDS011;4749;51.398;5.466;2022-08-21T10:56:10;7.57;;;1.45;;
9420;SDS011;4749;51.398;5.466;2022-08-21T10:59:23;5.03;;;1.30;;
9420;SDS011;4749;51.398;5.466;2022-08-21T11:02:20;4.32;;;1.10;;
9420;SDS011;4749;51.398;5.466;2022-08-21T11:05:05;4.53;;;1.30;;
9420;SDS011;4749;51.398;5.466;2022-08-21T11:07:41;3.67;;;1.15;;
9420;SDS011;4749;51.398;5.466;2022-08-21T11:10:12;6.18;;;1.17;;
9420;SDS011;4749;51.398;5.466;2022-08-21T11:13:08;5.03;;;1.23;;
9420;SDS011;4749;51.398;5.466;2022-08-21T11:16:21;4.40;;;1.33;;
9420;SDS011;4749;51.398;5.466;2022-08-21T11:19:09;3.55;;;1.25;;
9420;SDS011;4749;51.398;5.466;2022-08-21T11:22:06;5.28;;;1.30;;
9420;SDS011;4749;51.398;5.466;2022-08-21T11:29:58;4.10;;;1.17;;
9420;SDS011;4749;51.398;5.466;2022-08-21T11:35:39;5.57;;;1.42;;
9420;SDS011;4749;51.398;5.466;2022-08-21T11:38:35;4.75;;;1.20;;
9420;SDS011;4749;51.398;5.466;2022-08-21T11:41:13;4.50;;;1.40;;
9420;SDS011;4749;51.398;5.466;2022-08-21T11:44:18;4.03;;;1.30;;
9420;SDS011;4749;51.398;5.466;2022-08-21T11:47:06;6.10;;;1.50;;
9420;SDS011;4749;51.398;5.466;2022-08-21T11:53:11;6.13;;;1.55;;
9420;SDS011;4749;51.398;5.466;2022-08-21T11:56:34;4.25;;;1.35;;
9420;SDS011;4749;51.398;5.466;2022-08-21T11:59:09;4.07;;;1.40;;
9420;SDS011;4749;51.398;5.466;2022-08-21T12:01:46;4.47;;;1.42;;
9420;SDS011;4749;51.398;5.466;2022-08-21T12:07:27;2.38;;;1.13;;
9420;SDS011;4749;51.398;5.466;2022-08-21T12:10:34;6.32;;;1.40;;
9420;SDS011;4749;51.398;5.466;2022-08-21T12:13:27;5.05;;;1.30;;
9420;SDS011;4749;51.398;5.466;2022-08-21T12:16:12;3.55;;;1.33;;
9420;SDS011;4749;51.398;5.466;2022-08-21T12:18:42;5.93;;;2.03;;
9420;SDS011;4749;51.398;5.466;2022-08-21T12:21:17;4.72;;;1.30;;
9420;SDS011;4749;51.398;5.466;2022-08-21T12:26:50;3.80;;;1.58;;
9420;SDS011;4749;51.398;5.466;2022-08-21T12:29:22;4.72;;;1.60;;
9420;SDS011;4749;51.398;5.466;2022-08-21T12:32:00;4.18;;;1.42;;
9420;SDS011;4749;51.398;5.466;2022-08-21T12:34:36;4.25;;;1.38;;
9420;SDS011;4749;51.398;5.466;2022-08-21T12:39:54;3.63;;;1.40;;
9420;SDS011;4749;51.398;5.466;2022-08-21T12:43:00;4.13;;;1.60;;
9420;SDS011;4749;51.398;5.466;2022-08-21T12:48:20;4.10;;;1.40;;
9420;SDS011;4749;51.398;5.466;2022-08-21T12:51:18;6.47;;;1.60;;
9420;SDS011;4749;51.398;5.466;2022-08-21T12:53:56;5.05;;;1.63;;
9420;SDS011;4749;51.398;5.466;2022-08-21T12:56:26;4.78;;;1.58;;
9420;SDS011;4749;51.398;5.466;2022-08-21T12:59:07;5.43;;;1.77;;
9420;SDS011;4749;51.398;5.466;2022-08-21T13:01:39;6.38;;;1.70;;
9420;SDS011;4749;51.398;5.466;2022-08-21T13:04:19;4.93;;;2.00;;
9420;SDS011;4749;51.398;5.466;2022-08-21T13:07:09;6.38;;;1.95;;
9420;SDS011;4749;51.398;5.466;2022-08-21T13:09:46;3.72;;;1.58;;
9420;SDS011;4749;51.398;5.466;2022-08-21T13:12:17;7.35;;;1.98;;
9420;SDS011;4749;51.398;5.466;2022-08-21T13:14:46;4.97;;;1.80;;
9420;SDS011;4749;51.398;5.466;2022-08-21T13:17:18;4.32;;;1.80;;
9420;SDS011;4749;51.398;5.466;2022-08-21T13:19:55;4.03;;;1.80;;
9420;SDS011;4749;51.398;5.466;2022-08-21T13:22:51;4.05;;;1.90;;
9420;SDS011;4749;51.398;5.466;2022-08-21T13:25:19;3.75;;;2.08;;
9420;SDS011;4749;51.398;5.466;2022-08-21T13:27:58;7.40;;;2.10;;
9420;SDS011;4749;51.398;5.466;2022-08-21T13:30:41;4.72;;;2.40;;
9420;SDS011;4749;51.398;5.466;2022-08-21T13:33:21;6.30;;;2.78;;
9420;SDS011;4749;51.398;5.466;2022-08-21T13:36:10;5.40;;;2.15;;
9420;SDS011;4749;51.398;5.466;2022-08-21T13:38:44;6.95;;;2.13;;
9420;SDS011;4749;51.398;5.466;2022-08-21T13:44:50;5.22;;;2.30;;
9420;SDS011;4749;51.398;5.466;2022-08-21T13:47:02;4.65;;;2.20;;
9420;SDS011;4749;51.398;5.466;2022-08-21T13:49:36;7.00;;;3.22;;
9420;SDS011;4749;51.398;5.466;2022-08-21T13:52:16;5.15;;;2.50;;
9420;SDS011;4749;51.398;5.466;2022-08-21T13:54:55;4.97;;;2.75;;
9420;SDS011;4749;51.398;5.466;2022-08-21T14:00:16;4.43;;;2.50;;
9420;SDS011;4749;51.398;5.466;2022-08-21T14:02:51;6.30;;;3.03;;
9420;SDS011;4749;51.398;5.466;2022-08-21T14:05:21;6.30;;;3.10;;
9420;SDS011;4749;51.398;5.466;2022-08-21T14:11:04;4.40;;;2.40;;
9420;SDS011;4749;51.398;5.466;2022-08-21T14:13:42;7.93;;;3.08;;
9420;SDS011;4749;51.398;5.466;2022-08-21T14:16:45;7.57;;;2.80;;
9420;SDS011;4749;51.398;5.466;2022-08-21T14:19:27;5.15;;;2.38;;
9420;SDS011;4749;51.398;5.466;2022-08-21T14:25:40;6.25;;;2.33;;
9420;SDS011;4749;51.398;5.466;2022-08-21T14:30:38;7.50;;;2.83;;
9420;SDS011;4749;51.398;5.466;2022-08-21T14:33:09;4.70;;;2.30;;
9420;SDS011;4749;51.398;5.466;2022-08-21T14:35:39;5.10;;;2.40;;
9420;SDS011;4749;51.398;5.466;2022-08-21T14:38:17;5.07;;;2.47;;
9420;SDS011;4749;51.398;5.466;2022-08-21T14:40:48;5.50;;;2.65;;
9420;SDS011;4749;51.398;5.466;2022-08-21T14:43:19;5.70;;;2.35;;
9420;SDS011;4749;51.398;5.466;2022-08-21T14:45:46;5.65;;;2.72;;
9420;SDS011;4749;51.398;5.466;2022-08-21T14:48:14;6.28;;;3.13;;
9420;SDS011;4749;51.398;5.466;2022-08-21T14:50:41;6.03;;;2.28;;
9420;SDS011;4749;51.398;5.466;2022-08-21T14:53:09;5.60;;;2.22;;
9420;SDS011;4749;51.398;5.466;2022-08-21T14:55:37;9.18;;;2.40;;
9420;SDS011;4749;51.398;5.466;2022-08-21T14:58:23;5.63;;;2.40;;
9420;SDS011;4749;51.398;5.466;2022-08-21T15:00:52;6.57;;;3.00;;
9420;SDS011;4749;51.398;5.466;2022-08-21T15:03:22;7.70;;;2.55;;
9420;SDS011;4749;51.398;5.466;2022-08-21T15:05:50;5.75;;;2.65;;
9420;SDS011;4749;51.398;5.466;2022-08-21T15:08:18;7.32;;;2.60;;
9420;SDS011;4749;51.398;5.466;2022-08-21T15:10:45;5.53;;;2.92;;
9420;SDS011;4749;51.398;5.466;2022-08-21T15:13:33;3.83;;;2.35;;
9420;SDS011;4749;51.398;5.466;2022-08-21T15:16:02;5.15;;;2.15;;
9420;SDS011;4749;51.398;5.466;2022-08-21T15:18:30;5.57;;;2.20;;
9420;SDS011;4749;51.398;5.466;2022-08-21T15:20:58;7.15;;;2.53;;
9420;SDS011;4749;51.398;5.466;2022-08-21T15:23:25;6.50;;;2.67;;
9420;SDS011;4749;51.398;5.466;2022-08-21T15:25:52;7.80;;;2.58;;
9420;SDS011;4749;51.398;5.466;2022-08-21T15:28:21;7.57;;;2.92;;
9420;SDS011;4749;51.398;5.466;2022-08-21T15:30:48;5.68;;;2.50;;
9420;SDS011;4749;51.398;5.466;2022-08-21T15:33:17;6.50;;;2.40;;
9420;SDS011;4749;51.398;5.466;2022-08-21T15:35:45;7.95;;;2.60;;
9420;SDS011;4749;51.398;5.466;2022-08-21T15:38:12;9.27;;;2.90;;
9420;SDS011;4749;51.398;5.466;2022-08-21T15:40:41;6.45;;;2.70;;
9420;SDS011;4749;51.398;5.466;2022-08-21T15:43:24;6.63;;;2.75;;
9420;SDS011;4749;51.398;5.466;2022-08-21T15:45:58;7.18;;;3.20;;
9420;SDS011;4749;51.398;5.466;2022-08-21T15:48:27;10.38;;;3.33;;
9420;SDS011;4749;51.398;5.466;2022-08-21T15:50:55;5.10;;;2.30;;
9420;SDS011;4749;51.398;5.466;2022-08-21T15:53:22;7.50;;;2.50;;
9420;SDS011;4749;51.398;5.466;2022-08-21T15:55:49;4.15;;;2.30;;
9420;SDS011;4749;51.398;5.466;2022-08-21T15:58:16;9.35;;;2.80;;
9420;SDS011;4749;51.398;5.466;2022-08-21T16:00:46;9.25;;;3.00;;
9420;SDS011;4749;51.398;5.466;2022-08-21T16:03:14;6.93;;;2.22;;
9420;SDS011;4749;51.398;5.466;2022-08-21T16:05:44;6.63;;;1.80;;
9420;SDS011;4749;51.398;5.466;2022-08-21T16:08:14;6.43;;;2.15;;
9420;SDS011;4749;51.398;5.466;2022-08-21T16:10:42;7.97;;;2.15;;
9420;SDS011;4749;51.398;5.466;2022-08-21T16:13:15;7.03;;;2.33;;
9420;SDS011;4749;51.398;5.466;2022-08-21T16:15:55;6.20;;;1.60;;
9420;SDS011;4749;51.398;5.466;2022-08-21T16:18:22;8.60;;;2.30;;
9420;SDS011;4749;51.398;5.466;2022-08-21T16:20:51;8.07;;;2.67;;
9420;SDS011;4749;51.398;5.466;2022-08-21T16:23:19;8.23;;;1.80;;
9420;SDS011;4749;51.398;5.466;2022-08-21T16:25:46;5.93;;;1.70;;
9420;SDS011;4749;51.398;5.466;2022-08-21T16:28:14;6.82;;;2.00;;
9420;SDS011;4749;51.398;5.466;2022-08-21T16:30:47;6.63;;;2.13;;
9420;SDS011;4749;51.398;5.466;2022-08-21T16:35:54;6.45;;;2.00;;
9420;SDS011;4749;51.398;5.466;2022-08-21T16:38:21;6.22;;;1.70;;
9420;SDS011;4749;51.398;5.466;2022-08-21T16:40:49;5.55;;;1.80;;
9420;SDS011;4749;51.398;5.466;2022-08-21T16:43:16;5.97;;;2.15;;
9420;SDS011;4749;51.398;5.466;2022-08-21T16:45:43;6.47;;;2.33;;
9420;SDS011;4749;51.398;5.466;2022-08-21T16:48:11;4.22;;;1.70;;
9420;SDS011;4749;51.398;5.466;2022-08-21T16:50:38;7.70;;;1.83;;
9420;SDS011;4749;51.398;5.466;2022-08-21T16:53:05;6.80;;;1.90;;
9420;SDS011;4749;51.398;5.466;2022-08-21T16:55:33;10.10;;;1.73;;
9420;SDS011;4749;51.398;5.466;2022-08-21T16:58:03;5.28;;;1.83;;
9420;SDS011;4749;51.398;5.466;2022-08-21T17:00:57;7.65;;;1.98;;
9420;SDS011;4749;51.398;5.466;2022-08-21T17:03:27;5.72;;;2.00;;
9420;SDS011;4749;51.398;5.466;2022-08-21T17:05:59;4.57;;;1.70;;
9420;SDS011;4749;51.398;5.466;2022-08-21T17:08:27;7.40;;;2.03;;
9420;SDS011;4749;51.398;5.466;2022-08-21T17:10:54;6.65;;;1.65;;
9420;SDS011;4749;51.398;5.466;2022-08-21T17:13:22;5.85;;;1.70;;